createdAt,value
2018-09-12T00:02:17.493Z,98649.53
2018-09-12T00:04:45.782Z,98655.00
2018-09-12T00:07:19.186Z,98650.71
2018-09-12T00:09:47.390Z,98650.96
2018-09-12T00:12:15.670Z,98643.88
2018-09-12T00:14:43.861Z,98637.27
2018-09-12T00:17:12.138Z,98643.17
2018-09-12T00:19:40.422Z,98637.27
2018-09-12T00:22:08.625Z,98630.09
2018-09-12T00:24:36.957Z,98627.88
2018-09-12T00:27:05.159Z,98624.16
2018-09-12T00:29:33.330Z,98627.63
2018-09-12T00:32:01.544Z,98626.80
2018-09-12T00:34:29.781Z,98624.27
2018-09-12T00:36:58.097Z,98609.41
2018-09-12T00:39:26.277Z,98612.90
2018-09-12T00:41:54.469Z,98614.52
2018-09-12T00:44:22.662Z,98613.37
2018-09-12T00:46:50.869Z,98617.08
2018-09-12T00:49:19.066Z,98610.11
2018-09-12T00:51:47.251Z,98608.01
2018-09-12T00:54:15.435Z,98608.61
2018-09-12T00:56:43.618Z,98608.14
2018-09-12T00:59:11.802Z,98608.72
2018-09-12T01:01:40.014Z,98607.79
2018-09-12T01:04:08.215Z,98608.97
2018-09-12T01:06:36.425Z,98603.61
2018-09-12T01:09:05.941Z,98597.36
2018-09-12T01:11:34.142Z,98592.71
2018-09-12T01:14:02.400Z,98593.06
2018-09-12T01:16:32.934Z,98596.86
2018-09-12T01:19:01.102Z,98589.33
2018-09-12T01:21:29.654Z,98585.63
2018-09-12T01:23:58.119Z,98580.98
2018-09-12T01:26:26.410Z,98582.95
2018-09-12T01:28:54.623Z,98581.80
2018-09-12T01:31:22.893Z,98580.31
2018-09-12T01:33:51.414Z,98577.52
2018-09-12T01:36:19.615Z,98573.45
2018-09-12T01:38:47.801Z,98569.95
2018-09-12T01:41:16.033Z,98572.27
2018-09-12T01:43:44.245Z,98557.91
2018-09-12T01:46:12.513Z,98561.37
2018-09-12T01:48:40.706Z,98543.84
2018-09-12T01:51:08.898Z,98566.48
2018-09-12T01:53:37.085Z,98559.16
2018-09-12T01:56:05.287Z,98560.30
2018-09-12T01:58:33.466Z,98562.09
2018-09-12T02:01:01.740Z,98560.80
2018-09-12T02:03:29.922Z,98543.36
2018-09-12T02:05:58.134Z,98552.41
2018-09-12T02:08:26.383Z,98556.72
2018-09-12T02:10:54.572Z,98536.52
2018-09-12T02:13:22.756Z,98556.70
2018-09-12T02:15:51.085Z,98557.19
2018-09-12T02:18:19.261Z,98554.77
2018-09-12T02:20:47.452Z,98556.72
2018-09-12T02:23:15.705Z,98558.83
2018-09-12T02:25:43.905Z,98551.61
2018-09-12T02:28:12.085Z,98540.13
2018-09-12T02:30:40.382Z,98545.92
2018-09-12T02:33:08.573Z,98545.44
2018-09-12T02:35:40.918Z,98546.95
2018-09-12T02:38:09.110Z,98536.28
2018-09-12T02:40:37.325Z,98536.27
2018-09-12T02:43:05.609Z,98531.63
2018-09-12T02:45:33.973Z,98533.95
2018-09-12T02:48:02.165Z,98532.80
2018-09-12T02:50:30.362Z,98531.53
2018-09-12T02:52:58.550Z,98526.21
2018-09-12T02:55:26.746Z,98523.28
2018-09-12T02:57:54.949Z,98521.09
2018-09-12T03:00:23.151Z,98515.64
2018-09-12T03:02:51.418Z,98506.70
2018-09-12T03:05:19.653Z,98519.45
2018-09-12T03:07:47.877Z,98517.38
2018-09-12T03:10:16.025Z,98514.03
2018-09-12T03:12:44.299Z,98512.49
2018-09-12T03:15:12.489Z,98512.27
2018-09-12T03:17:40.695Z,98495.00
2018-09-12T03:20:08.897Z,98511.10
2018-09-12T03:22:37.084Z,98500.91
2018-09-12T03:25:05.297Z,98505.31
2018-09-12T03:27:33.497Z,98503.91
2018-09-12T03:30:01.699Z,98491.86
2018-09-12T03:32:29.874Z,98500.53
2018-09-12T03:34:58.077Z,98499.41
2018-09-12T03:37:26.330Z,98502.64
2018-09-12T03:39:54.520Z,98505.63
2018-09-12T03:42:22.715Z,98503.11
2018-09-12T03:44:50.922Z,98508.64
2018-09-12T03:47:19.112Z,98511.19
2018-09-12T03:49:47.313Z,98505.16
2018-09-12T03:52:15.526Z,98505.94
2018-09-12T03:54:43.750Z,98501.20
2018-09-12T03:57:11.942Z,98510.11
2018-09-12T03:59:40.146Z,98507.66
2018-09-12T04:02:08.345Z,98499.07
2018-09-12T04:04:36.549Z,98504.63
2018-09-12T04:07:04.778Z,98504.41
2018-09-12T04:09:34.403Z,98501.65
2018-09-12T04:12:02.609Z,98495.58
2018-09-12T04:14:30.838Z,98504.73
2018-09-12T04:16:59.112Z,98500.09
2018-09-12T04:19:27.258Z,98499.97
2018-09-12T04:21:55.629Z,98505.81
2018-09-12T04:24:23.917Z,98504.42
2018-09-12T04:26:52.030Z,98506.51
2018-09-12T04:29:20.301Z,98501.77
2018-09-12T04:31:48.506Z,98504.20
2018-09-12T04:34:16.705Z,98506.63
2018-09-12T04:36:44.953Z,98506.25
2018-09-12T04:39:13.734Z,98490.69
2018-09-12T04:41:41.942Z,98510.90
2018-09-12T04:44:10.214Z,98509.83
2018-09-12T04:46:38.418Z,98508.44
2018-09-12T04:49:06.829Z,98510.42
2018-09-12T04:51:35.037Z,98508.09
2018-09-12T04:54:03.238Z,98511.52
2018-09-12T04:56:31.437Z,98515.38
2018-09-12T04:58:59.636Z,98516.48
2018-09-12T05:01:27.839Z,98512.66
2018-09-12T05:03:56.169Z,98511.05
2018-09-12T05:06:24.383Z,98510.30
2018-09-12T05:08:52.605Z,98510.27
2018-09-12T05:11:20.810Z,98512.88
2018-09-12T05:13:49.437Z,98517.72
2018-09-12T05:16:17.638Z,98517.69
2018-09-12T05:18:45.837Z,98516.08
2018-09-12T05:21:14.050Z,98519.05
2018-09-12T05:23:42.317Z,98519.80
2018-09-12T05:26:10.503Z,98517.05
2018-09-12T05:28:38.755Z,98509.63
2018-09-12T05:31:06.924Z,98505.90
2018-09-12T05:33:35.160Z,98511.58
2018-09-12T05:36:03.383Z,98514.73
2018-09-12T05:38:31.608Z,98513.56
2018-09-12T05:40:59.854Z,98515.33
2018-09-12T05:43:28.070Z,98513.03
2018-09-12T05:45:56.338Z,98520.48
2018-09-12T05:48:24.549Z,98512.23
2018-09-12T05:52:17.209Z,98509.48
2018-09-12T05:54:45.417Z,98507.75
2018-09-12T05:57:13.618Z,98504.38
2018-09-12T05:59:41.882Z,98507.30
2018-09-12T06:02:10.061Z,98511.02
2018-09-12T06:04:38.395Z,98506.38
2018-09-12T06:07:06.727Z,98514.48
2018-09-12T06:09:34.829Z,98510.88
2018-09-12T06:12:03.013Z,98498.72
2018-09-12T06:14:31.203Z,98517.53
2018-09-12T06:16:59.389Z,98516.61
2018-09-12T06:19:27.576Z,98508.00
2018-09-12T06:21:55.758Z,98501.86
2018-09-12T06:24:23.958Z,98522.03
2018-09-12T06:26:52.149Z,98508.47
2018-09-12T06:29:20.333Z,98522.14
2018-09-12T06:31:48.546Z,98509.25
2018-09-12T06:34:16.730Z,98516.78
2018-09-12T06:36:45.020Z,98516.67
2018-09-12T06:39:13.993Z,98514.45
2018-09-12T06:41:42.145Z,98499.70
2018-09-12T06:44:10.333Z,98485.09
2018-09-12T06:46:38.698Z,98506.46
2018-09-12T06:49:07.502Z,98505.38
2018-09-12T06:51:35.797Z,98510.09
2018-09-12T06:54:04.282Z,98512.63
2018-09-12T06:56:32.469Z,98503.78
2018-09-12T06:59:00.657Z,98499.60
2018-09-12T07:01:29.042Z,98502.13
2018-09-12T07:03:57.234Z,98501.50
2018-09-12T07:06:25.479Z,98498.80
2018-09-12T07:08:53.799Z,98497.22
2018-09-12T07:11:21.974Z,98500.06
2018-09-12T07:13:50.509Z,98506.31
2018-09-12T07:16:18.697Z,98505.70
2018-09-12T07:18:46.882Z,98509.12
2018-09-12T07:21:15.066Z,98509.20
2018-09-12T07:23:43.366Z,98503.39
2018-09-12T07:26:11.703Z,98509.42
2018-09-12T07:28:39.937Z,98508.55
2018-09-12T07:31:08.121Z,98505.25
2018-09-12T07:33:36.313Z,98513.67
2018-09-12T07:36:04.522Z,98509.27
2018-09-12T07:38:32.727Z,98512.09
2018-09-12T07:41:00.932Z,98510.95
2018-09-12T07:43:29.454Z,98508.39
2018-09-12T07:45:57.668Z,98509.20
2018-09-12T07:48:26.080Z,98501.94
2018-09-12T07:50:54.936Z,98507.16
2018-09-12T07:53:23.846Z,98515.59
2018-09-12T07:55:52.355Z,98514.84
2018-09-12T07:58:20.799Z,98518.73
2018-09-12T08:00:49.404Z,98519.09
2018-09-12T08:03:17.638Z,98521.38
2018-09-12T08:05:46.484Z,98517.03
2018-09-12T08:08:15.192Z,98510.80
2018-09-12T08:10:43.431Z,98508.67
2018-09-12T08:13:12.101Z,98512.91
2018-09-12T08:15:41.086Z,98513.91
2018-09-12T08:18:09.609Z,98514.16
2018-09-12T08:20:38.055Z,98512.17
2018-09-12T08:23:07.141Z,98507.75
2018-09-12T08:25:35.394Z,98513.27
2018-09-12T08:28:04.234Z,98510.09
2018-09-12T08:30:33.139Z,98516.89
2018-09-12T08:33:01.413Z,98518.56
2018-09-12T08:35:29.781Z,98515.68
2018-09-12T08:37:58.414Z,98513.75
2018-09-12T08:40:26.798Z,98515.22
2018-09-12T08:42:55.591Z,98510.97
2018-09-12T08:45:24.343Z,98507.76
2018-09-12T08:47:52.924Z,98503.03
2018-09-12T08:50:23.634Z,98502.97
2018-09-12T08:52:52.731Z,98502.05
2018-09-12T08:55:21.531Z,98500.12
2018-09-12T08:57:50.299Z,98498.21
2018-09-12T09:00:18.928Z,98497.39
2018-09-12T09:02:47.242Z,98499.09
2018-09-12T09:05:16.019Z,98497.00
2018-09-12T09:07:44.289Z,98499.58
2018-09-12T09:10:12.478Z,98497.98
2018-09-12T09:12:40.774Z,98487.59
2018-09-12T09:15:08.974Z,98493.54
2018-09-12T09:17:37.174Z,98492.06
2018-09-12T09:20:05.369Z,98494.30
2018-09-12T09:22:33.599Z,98496.20
2018-09-12T09:25:01.849Z,98489.57
2018-09-12T09:27:30.069Z,98491.89
2018-09-12T09:29:58.298Z,98488.88
2018-09-12T09:32:26.613Z,98489.70
2018-09-12T09:34:55.084Z,98486.66
2018-09-12T09:37:23.266Z,98489.30
2018-09-12T09:39:51.500Z,98492.13
2018-09-12T09:42:19.716Z,98486.46
2018-09-12T09:44:50.399Z,98489.30
2018-09-12T09:47:18.689Z,98476.77
2018-09-12T09:49:46.931Z,98482.38
2018-09-12T09:52:15.202Z,98478.87
2018-09-12T09:54:43.522Z,98480.67
2018-09-12T09:57:11.725Z,98485.73
2018-09-12T09:59:39.961Z,98486.46
2018-09-12T10:02:13.429Z,98484.42
2018-09-12T10:04:47.085Z,98471.84
2018-09-12T10:07:46.182Z,98475.02
2018-09-12T10:10:14.513Z,98469.80
2018-09-12T10:13:46.102Z,98465.70
2018-09-12T10:16:14.314Z,98462.14
2018-09-12T10:18:42.569Z,98457.76
2018-09-12T10:21:10.781Z,98461.97
2018-09-12T10:23:39.023Z,98463.95
2018-09-12T10:26:07.214Z,98462.36
2018-09-12T10:28:35.421Z,98456.58
2018-09-12T10:31:03.611Z,98458.98
2018-09-12T10:33:31.814Z,98457.62
2018-09-12T10:36:00.026Z,98450.06
2018-09-12T10:38:28.565Z,98444.94
2018-09-12T10:40:59.433Z,98442.76
2018-09-12T10:43:28.045Z,98436.81
2018-09-12T10:45:56.502Z,98436.14
2018-09-12T10:48:24.753Z,98442.05
2018-09-12T10:50:52.961Z,98437.30
2018-09-12T10:53:21.176Z,98445.27
2018-09-12T10:55:49.626Z,98435.75
2018-09-12T10:58:17.873Z,98435.06
2018-09-12T11:00:46.149Z,98432.45
2018-09-12T11:03:15.061Z,98427.08
2018-09-12T11:05:43.284Z,98424.11
2018-09-12T11:08:11.530Z,98424.54
2018-09-12T11:10:39.785Z,98423.52
2018-09-12T11:13:07.997Z,98425.63
2018-09-12T11:15:36.194Z,98422.27
2018-09-12T11:18:04.417Z,98418.64
2018-09-12T11:20:32.662Z,98414.50
2018-09-12T11:23:00.928Z,98406.43
2018-09-12T11:25:29.126Z,98403.50
2018-09-12T11:27:57.333Z,98401.87
2018-09-12T11:30:25.630Z,98404.27
2018-09-12T11:32:53.898Z,98397.53
2018-09-12T11:35:22.098Z,98399.13
2018-09-12T11:37:50.313Z,98398.60
2018-09-12T11:40:18.506Z,98400.21
2018-09-12T11:42:46.690Z,98402.80
2018-09-12T11:45:14.874Z,98390.95
2018-09-12T11:47:43.095Z,98390.53
2018-09-12T11:50:11.329Z,98391.03
2018-09-12T11:52:39.590Z,98393.75
2018-09-12T11:55:07.782Z,98390.46
2018-09-12T11:57:36.017Z,98387.59
2018-09-12T12:00:04.526Z,98384.55
2018-09-12T12:02:32.761Z,98373.27
2018-09-12T12:05:00.975Z,98375.13
2018-09-12T12:07:29.179Z,98363.23
2018-09-12T12:09:57.388Z,98369.32
2018-09-12T12:12:25.599Z,98362.94
2018-09-12T12:14:53.789Z,98364.83
2018-09-12T12:17:21.993Z,98364.95
2018-09-12T12:19:50.197Z,98355.70
2018-09-12T12:22:18.473Z,98347.82
2018-09-12T12:24:46.662Z,98350.47
2018-09-12T12:27:14.931Z,98342.02
2018-09-12T12:29:43.172Z,98339.11
2018-09-12T12:33:40.562Z,98332.19
2018-09-12T12:36:09.282Z,98328.42
2018-09-12T12:38:37.642Z,98326.76
2018-09-12T12:41:05.884Z,98320.93
2018-09-12T12:43:34.087Z,98314.73
2018-09-12T12:46:02.314Z,98322.94
2018-09-12T12:48:30.561Z,98317.41
2018-09-12T12:50:58.837Z,98307.30
2018-09-12T12:53:27.049Z,98312.38
2018-09-12T12:55:55.237Z,98305.66
2018-09-12T12:58:23.485Z,98302.05
2018-09-12T13:00:51.757Z,98291.65
2018-09-12T13:03:19.936Z,98294.59
2018-09-12T13:05:48.127Z,98289.39
2018-09-12T13:08:16.415Z,98293.10
2018-09-12T13:10:44.610Z,98288.00
2018-09-12T13:13:12.929Z,98277.94
2018-09-12T13:15:41.113Z,98278.23
2018-09-12T13:18:09.318Z,98276.23
2018-09-12T13:20:37.562Z,98274.41
2018-09-12T13:23:05.848Z,98271.24
2018-09-12T13:25:34.046Z,98271.12
2018-09-12T13:28:02.251Z,98268.13
2018-09-12T13:30:30.421Z,98271.36
2018-09-12T13:32:58.692Z,98262.42
2018-09-12T13:35:26.875Z,98264.69
2018-09-12T13:37:55.063Z,98258.30
2018-09-12T13:40:23.261Z,98251.91
2018-09-12T13:42:51.494Z,98248.20
2018-09-12T13:45:19.748Z,98234.90
2018-09-12T13:47:47.977Z,98234.90
2018-09-12T13:50:17.126Z,98231.36
2018-09-12T13:52:46.840Z,98224.27
2018-09-12T13:55:15.237Z,98221.02
2018-09-12T13:57:43.842Z,98216.97
2018-09-12T14:00:12.050Z,98220.23
2018-09-12T14:02:40.269Z,98225.58
2018-09-12T14:05:08.492Z,98217.66
2018-09-12T14:07:36.748Z,98213.22
2018-09-12T14:10:05.377Z,98202.91
2018-09-12T14:12:33.574Z,98208.05
2018-09-12T14:15:01.765Z,98203.27
2018-09-12T14:17:30.273Z,98201.59
2018-09-12T14:19:58.485Z,98197.66
2018-09-12T14:22:26.713Z,98193.66
2018-09-12T14:24:54.981Z,98189.95
2018-09-12T14:27:23.106Z,98189.43
2018-09-12T14:29:51.330Z,98188.16
2018-09-12T14:32:19.665Z,98186.56
2018-09-12T14:34:47.737Z,98185.69
2018-09-12T14:37:15.949Z,98184.09
2018-09-12T14:39:44.128Z,98181.05
2018-09-12T14:42:12.342Z,98180.17
2018-09-12T14:44:40.559Z,98175.59
2018-09-12T14:47:08.754Z,98169.80
2018-09-12T14:49:36.961Z,98168.81
2018-09-12T14:52:05.182Z,98167.10
2018-09-12T14:54:33.357Z,98174.13
2018-09-12T14:57:01.538Z,98171.65
2018-09-12T14:59:29.721Z,98166.48
2018-09-12T15:01:58.009Z,98168.36
2018-09-12T15:04:26.230Z,98169.42
2018-09-12T15:06:54.450Z,98162.91
2018-09-12T15:09:22.641Z,98159.91
2018-09-12T15:11:50.833Z,98159.98
2018-09-12T15:14:19.034Z,98164.66
2018-09-12T15:16:47.249Z,98167.02
2018-09-12T15:19:15.445Z,98166.19
2018-09-12T15:21:43.741Z,98161.17
2018-09-12T15:24:12.042Z,98162.17
2018-09-12T15:26:40.967Z,98157.09
2018-09-12T15:29:09.509Z,98154.86
2018-09-12T15:31:37.691Z,98150.67
2018-09-12T15:34:05.971Z,98152.03
2018-09-12T15:36:34.165Z,98151.56
2018-09-12T15:39:02.364Z,98150.85
2018-09-12T15:41:30.649Z,98152.25
2018-09-12T15:43:58.753Z,98147.14
2018-09-12T15:46:27.109Z,98151.41
2018-09-12T15:48:55.311Z,98142.10
2018-09-12T15:51:23.505Z,98139.41
2018-09-12T15:53:51.701Z,98142.69
2018-09-12T15:56:19.889Z,98133.03
2018-09-12T15:58:48.211Z,98138.84
2018-09-12T16:01:16.401Z,98130.05
2018-09-12T16:03:44.707Z,98132.34
2018-09-12T16:06:12.904Z,98129.67
2018-09-12T16:08:41.130Z,98124.42
2018-09-12T16:11:09.314Z,98122.58
2018-09-12T16:13:37.536Z,98116.18
2018-09-12T16:16:05.743Z,98118.30
2018-09-12T16:18:34.010Z,98113.66
2018-09-12T16:21:02.263Z,98107.56
2018-09-12T16:23:30.456Z,98107.34
2018-09-12T16:25:58.641Z,98107.86
2018-09-12T16:28:26.858Z,98111.10
2018-09-12T16:30:55.165Z,98110.42
2018-09-12T16:33:23.358Z,98104.98
2018-09-12T16:35:51.614Z,98099.59
2018-09-12T16:38:19.918Z,98105.34
2018-09-12T16:40:48.198Z,98107.45
2018-09-12T16:43:16.377Z,98101.78
2018-09-12T16:45:44.617Z,98108.95
2018-09-12T16:48:12.838Z,98105.30
2018-09-12T16:50:41.041Z,98107.66
2018-09-12T16:53:09.249Z,98097.73
2018-09-12T16:55:37.466Z,98103.16
2018-09-12T16:58:05.657Z,98102.83
2018-09-12T17:00:33.836Z,98119.20
2018-09-12T17:03:02.118Z,98107.41
2018-09-12T17:05:30.330Z,98108.98
2018-09-12T17:07:58.541Z,98104.56
2018-09-12T17:10:26.732Z,98106.76
2018-09-12T17:12:55.001Z,98108.70
2018-09-12T17:15:23.358Z,98107.02
2018-09-12T17:17:51.648Z,98113.51
2018-09-12T17:20:19.877Z,98111.03
2018-09-12T17:22:48.062Z,98112.28
2018-09-12T17:25:16.422Z,98101.22
2018-09-12T17:27:44.618Z,98109.88
2018-09-12T17:30:12.797Z,98109.55
2018-09-12T17:32:41.002Z,98100.96
2018-09-12T17:35:09.182Z,98080.30
2018-09-12T17:37:38.217Z,98104.97
2018-09-12T17:40:06.447Z,98106.92
2018-09-12T17:42:34.692Z,98107.38
2018-09-12T17:45:02.882Z,98109.09
2018-09-12T17:47:31.086Z,98112.45
2018-09-12T17:49:59.385Z,98111.67
2018-09-12T17:52:27.639Z,98115.77
2018-09-12T17:54:55.817Z,98117.13
2018-09-12T17:57:24.011Z,98115.36
2018-09-12T17:59:52.270Z,98121.62
2018-09-12T18:02:20.470Z,98116.60
2018-09-12T18:04:48.657Z,98120.52
2018-09-12T18:07:16.935Z,98121.77
2018-09-12T18:09:45.121Z,98133.47
2018-09-12T18:12:13.371Z,98127.06
2018-09-12T18:14:41.584Z,98136.36
2018-09-12T18:17:09.811Z,98135.73
2018-09-12T18:19:38.009Z,98134.13
2018-09-12T18:22:06.412Z,98141.39
2018-09-12T18:24:34.734Z,98135.95
2018-09-12T18:27:04.252Z,98139.02
2018-09-12T18:29:34.710Z,98143.88
2018-09-12T18:32:03.067Z,98134.83
2018-09-12T18:34:31.515Z,98136.42
2018-09-12T18:36:59.745Z,98143.30
2018-09-12T18:39:28.008Z,98142.91
2018-09-12T18:41:56.314Z,98142.14
2018-09-12T18:44:24.557Z,98144.73
2018-09-12T18:46:52.884Z,98132.67
2018-09-12T18:49:21.122Z,98131.88
2018-09-12T18:51:49.462Z,98139.72
2018-09-12T18:54:17.717Z,98139.14
2018-09-12T18:56:46.018Z,98146.36
2018-09-12T18:59:14.357Z,98144.55
2018-09-12T19:01:42.773Z,98141.30
2018-09-12T19:04:11.143Z,98146.12
2018-09-12T19:06:39.403Z,98146.53
2018-09-12T19:09:09.077Z,98144.72
2018-09-12T19:11:37.274Z,98138.91
2018-09-12T19:14:05.609Z,98137.28
2018-09-12T19:16:34.133Z,98136.06
2018-09-12T19:19:02.519Z,98131.47
2018-09-12T19:21:30.740Z,98142.94
2018-09-12T19:23:59.242Z,98145.94
2018-09-12T19:26:27.545Z,98146.53
2018-09-12T19:28:55.845Z,98157.37
2018-09-12T19:31:24.109Z,98148.71
2018-09-12T19:33:52.376Z,98150.30
2018-09-12T19:36:20.851Z,98153.11
2018-09-12T19:38:49.075Z,98154.12
2018-09-12T19:41:17.461Z,98157.70
2018-09-12T19:43:45.785Z,98160.09
2018-09-12T19:46:14.077Z,98160.70
2018-09-12T19:48:42.345Z,98164.58
2018-09-12T19:51:16.642Z,98171.76
2018-09-12T19:53:45.330Z,98177.38
2018-09-12T19:56:14.545Z,98167.48
2018-09-12T19:58:44.565Z,98163.44
2018-09-12T20:01:12.789Z,98157.69
2018-09-12T20:03:41.101Z,98154.89
2018-09-12T20:06:09.390Z,98155.70
2018-09-12T20:08:37.721Z,98156.89
2018-09-12T20:11:06.146Z,98157.48
2018-09-12T20:13:34.357Z,98161.28
2018-09-12T20:16:04.887Z,98166.33
2018-09-12T20:18:33.105Z,98180.29
2018-09-12T20:21:01.465Z,98198.80
2018-09-12T20:23:30.138Z,98208.05
2018-09-12T20:25:59.603Z,98209.08
2018-09-12T20:28:27.983Z,98232.18
2018-09-12T20:30:56.343Z,98222.11
2018-09-12T20:33:24.590Z,98217.32
2018-09-12T20:35:52.887Z,98228.80
2018-09-12T20:38:21.161Z,98227.75
2018-09-12T20:40:49.457Z,98232.08
2018-09-12T20:43:20.404Z,98243.39
2018-09-12T20:45:48.726Z,98249.94
2018-09-12T20:49:20.250Z,98251.45
2018-09-12T20:51:48.518Z,98251.71
2018-09-12T20:54:17.369Z,98246.69
2018-09-12T20:56:46.713Z,98249.32
2018-09-12T20:59:14.977Z,98242.87
2018-09-12T21:01:43.228Z,98242.52
2018-09-12T21:04:11.427Z,98243.20
2018-09-12T21:06:39.706Z,98241.22
2018-09-12T21:09:10.419Z,98234.30
2018-09-12T21:11:39.230Z,98230.56
2018-09-12T21:14:08.108Z,98228.08
2018-09-12T21:16:36.701Z,98229.41
2018-09-12T21:19:05.306Z,98235.47
2018-09-12T21:21:33.528Z,98241.58
2018-09-12T21:24:01.834Z,98230.41
2018-09-12T21:26:30.109Z,98232.50
2018-09-12T21:28:58.491Z,98220.94
2018-09-12T21:31:26.758Z,98213.77
2018-09-12T21:33:55.112Z,98219.73
2018-09-12T21:36:23.621Z,98218.61
2018-09-12T21:38:52.101Z,98212.27
2018-09-12T21:41:20.378Z,98196.76
2018-09-12T21:43:48.631Z,98197.27
2018-09-12T21:46:16.937Z,98189.48
2018-09-12T21:48:45.262Z,98186.75
2018-09-12T21:51:13.545Z,98181.36
2018-09-12T21:53:41.801Z,98173.76
2018-09-12T21:56:10.177Z,98176.61
2018-09-12T21:58:38.485Z,98178.25
2018-09-12T22:01:06.826Z,98179.50
2018-09-12T22:03:35.009Z,98173.27
2018-09-12T22:06:03.253Z,98177.00
2018-09-12T22:08:31.621Z,98179.91
2018-09-12T22:10:59.944Z,98177.15
2018-09-12T22:13:28.157Z,98172.05
2018-09-12T22:15:56.476Z,98186.47
2018-09-12T22:18:24.777Z,98185.89
2018-09-12T22:20:53.122Z,98178.23
2018-09-12T22:23:21.333Z,98182.49
2018-09-12T22:25:49.529Z,98184.46
2018-09-12T22:28:17.873Z,98188.70
2018-09-12T22:30:46.172Z,98195.59
2018-09-12T22:33:14.393Z,98192.91
2018-09-12T22:35:42.608Z,98197.25
2018-09-12T22:38:10.891Z,98201.89
2018-09-12T22:40:39.285Z,98199.86
2018-09-12T22:43:07.597Z,98200.44
2018-09-12T22:45:35.796Z,98199.72
2018-09-12T22:48:04.026Z,98193.92
2018-09-12T22:50:32.288Z,98188.97
2018-09-12T22:53:00.493Z,98192.30
2018-09-12T22:55:28.746Z,98182.64
2018-09-12T22:57:56.986Z,98187.19
2018-09-12T23:00:25.294Z,98187.67
2018-09-12T23:02:53.486Z,98177.50
2018-09-12T23:05:21.761Z,98174.55
2018-09-12T23:07:50.034Z,98174.92
2018-09-12T23:10:18.244Z,98187.61
2018-09-12T23:12:46.497Z,98185.73
2018-09-12T23:15:14.813Z,98183.42
2018-09-12T23:17:43.009Z,98180.52
2018-09-12T23:20:11.217Z,98180.52
2018-09-12T23:22:39.449Z,98179.41
2018-09-12T23:25:07.672Z,98168.59
2018-09-12T23:27:35.930Z,98157.66
2018-09-12T23:30:04.137Z,98157.84
2018-09-12T23:32:32.341Z,98159.70
2018-09-12T23:35:00.537Z,98154.20
2018-09-12T23:37:28.782Z,98155.80
2018-09-12T23:39:56.982Z,98157.62
2018-09-12T23:42:25.213Z,98160.81
2018-09-12T23:44:53.423Z,98164.47
2018-09-12T23:47:21.626Z,98164.37
2018-09-12T23:49:49.825Z,98154.58
2018-09-12T23:52:18.028Z,98152.66
2018-09-12T23:54:46.242Z,98153.44
2018-09-12T23:57:14.437Z,98162.80
2018-09-12T23:59:42.673Z,98163.89
